createdAt,value
2017-07-28T00:00:40.628Z,0
2017-07-28T00:01:53.233Z,0
2017-07-28T00:03:05.729Z,0
2017-07-28T00:04:18.350Z,0
2017-07-28T00:05:30.878Z,0
2017-07-28T00:06:43.716Z,0
2017-07-28T00:07:56.313Z,0
2017-07-28T00:09:08.564Z,0
2017-07-28T00:10:20.841Z,0
2017-07-28T00:11:33.133Z,0
2017-07-28T00:12:45.738Z,0
2017-07-28T00:13:58.334Z,0
2017-07-28T00:15:10.662Z,0
2017-07-28T00:16:23.237Z,0
2017-07-28T00:17:35.830Z,0
2017-07-28T00:18:48.114Z,0
2017-07-28T00:20:00.746Z,0
2017-07-28T00:21:12.710Z,0
2017-07-28T00:22:25.275Z,0
2017-07-28T00:23:37.885Z,0
2017-07-28T00:24:50.196Z,0
2017-07-28T00:26:02.812Z,0
2017-07-28T00:27:15.159Z,0
2017-07-28T00:28:27.417Z,0
2017-07-28T00:29:39.665Z,0
2017-07-28T00:30:52.246Z,0
2017-07-28T00:32:04.556Z,0
2017-07-28T00:33:16.882Z,0
2017-07-28T00:34:29.163Z,0
2017-07-28T00:35:41.693Z,0
2017-07-28T00:36:54.242Z,0
2017-07-28T00:38:06.577Z,0
2017-07-28T00:39:18.830Z,0
2017-07-28T00:40:31.419Z,0
2017-07-28T00:41:43.748Z,0
2017-07-28T00:42:56.348Z,0
2017-07-28T00:44:08.933Z,0
2017-07-28T00:45:21.163Z,0
2017-07-28T00:46:33.457Z,0
2017-07-28T00:47:45.783Z,0
2017-07-28T00:48:58.386Z,0
2017-07-28T00:50:10.993Z,0
2017-07-28T00:51:23.227Z,0
2017-07-28T00:52:35.822Z,0
2017-07-28T00:53:48.183Z,0
2017-07-28T00:55:00.489Z,0
2017-07-28T00:56:12.804Z,0
2017-07-28T00:57:25.361Z,0
2017-07-28T00:58:37.641Z,0
2017-07-28T00:59:49.975Z,0
2017-07-28T01:01:02.758Z,0
2017-07-28T01:02:15.358Z,0
2017-07-28T01:03:27.341Z,0
2017-07-28T01:04:39.613Z,0
2017-07-28T01:05:52.194Z,0
2017-07-28T01:07:04.490Z,0
2017-07-28T01:08:16.475Z,0
2017-07-28T01:09:28.762Z,0
2017-07-28T01:10:40.750Z,0
2017-07-28T01:11:53.362Z,0
2017-07-28T01:13:05.698Z,0
2017-07-28T01:14:18.288Z,0
2017-07-28T01:15:30.544Z,0
2017-07-28T01:16:43.129Z,0
2017-07-28T01:17:55.686Z,0
2017-07-28T01:19:08.003Z,0
2017-07-28T01:20:20.294Z,0
2017-07-28T01:21:32.564Z,0
2017-07-28T01:22:45.438Z,0
2017-07-28T01:23:57.397Z,0
2017-07-28T01:25:09.700Z,0
2017-07-28T01:26:22.282Z,0
2017-07-28T01:27:34.308Z,0
2017-07-28T01:28:46.912Z,0
2017-07-28T01:29:59.515Z,0
2017-07-28T01:31:11.854Z,0
2017-07-28T01:32:24.407Z,0
2017-07-28T01:33:36.653Z,0
2017-07-28T01:34:49.246Z,0
2017-07-28T01:36:01.264Z,0
2017-07-28T01:37:13.545Z,0
2017-07-28T01:38:26.143Z,0
2017-07-28T01:39:38.479Z,0
2017-07-28T01:40:50.454Z,0
2017-07-28T01:42:02.999Z,0
2017-07-28T01:43:15.346Z,0
2017-07-28T01:44:27.887Z,0
2017-07-28T01:45:40.419Z,0
2017-07-28T01:46:53.033Z,0
2017-07-28T01:48:05.290Z,0
2017-07-28T01:49:17.257Z,0
2017-07-28T01:50:29.815Z,0
2017-07-28T01:51:42.136Z,0
2017-07-28T01:52:54.723Z,0
2017-07-28T01:54:07.002Z,0
2017-07-28T01:55:19.602Z,0
2017-07-28T01:56:32.236Z,0
2017-07-28T01:57:44.789Z,0
2017-07-28T01:58:57.361Z,0
2017-07-28T02:00:09.632Z,0
2017-07-28T02:01:21.878Z,0
2017-07-28T02:02:33.830Z,0
2017-07-28T02:03:46.421Z,0
2017-07-28T02:04:58.701Z,0
2017-07-28T02:06:11.294Z,0
2017-07-28T02:07:23.275Z,0
2017-07-28T02:08:35.555Z,0
2017-07-28T02:09:48.131Z,0
2017-07-28T02:11:00.719Z,0
2017-07-28T02:12:13.072Z,0
2017-07-28T02:13:25.624Z,0
2017-07-28T02:14:38.239Z,0
2017-07-28T02:15:50.879Z,0
2017-07-28T02:17:03.433Z,0
2017-07-28T02:18:15.983Z,0
2017-07-28T02:19:28.578Z,0
2017-07-28T02:20:40.856Z,0
2017-07-28T02:21:52.844Z,0
2017-07-28T02:23:05.448Z,0
2017-07-28T02:24:18.000Z,0
2017-07-28T02:25:30.639Z,0
2017-07-28T02:26:43.259Z,0
2017-07-28T02:27:55.789Z,0
2017-07-28T02:29:08.359Z,0
2017-07-28T02:30:21.012Z,0
2017-07-28T02:31:33.313Z,0
2017-07-28T02:32:45.596Z,0
2017-07-28T02:33:57.868Z,0
2017-07-28T02:35:10.471Z,0
2017-07-28T02:36:23.125Z,0
2017-07-28T02:37:35.730Z,0
2017-07-28T02:38:48.355Z,0
2017-07-28T02:40:00.923Z,4
2017-07-28T02:41:13.505Z,4
2017-07-28T02:42:26.093Z,4
2017-07-28T02:43:38.434Z,0
2017-07-28T02:44:51.016Z,4
2017-07-28T02:46:03.289Z,4
2017-07-28T02:47:15.910Z,4
2017-07-28T02:48:28.546Z,8
2017-07-28T02:49:41.459Z,8
2017-07-28T02:50:54.060Z,12
2017-07-28T02:52:06.588Z,16
2017-07-28T02:53:18.888Z,12
2017-07-28T02:54:31.480Z,16
2017-07-28T02:55:43.445Z,20
2017-07-28T02:56:56.074Z,24
2017-07-28T02:58:08.635Z,28
2017-07-28T02:59:21.182Z,32
2017-07-28T03:00:34.021Z,40
2017-07-28T03:01:46.655Z,44
2017-07-28T03:02:59.194Z,52
2017-07-28T03:04:11.771Z,60
2017-07-28T03:05:24.100Z,68
2017-07-28T03:06:36.383Z,80
2017-07-28T03:07:48.957Z,84
2017-07-28T03:09:01.217Z,96
2017-07-28T03:10:13.156Z,112
2017-07-28T03:11:25.441Z,124
2017-07-28T03:12:37.715Z,136
2017-07-28T03:13:50.339Z,152
2017-07-28T03:15:02.683Z,168
2017-07-28T03:16:14.955Z,184
2017-07-28T03:17:27.557Z,200
2017-07-28T03:18:40.138Z,220
2017-07-28T03:19:52.737Z,240
2017-07-28T03:21:05.311Z,260
2017-07-28T03:22:17.857Z,284
2017-07-28T03:23:30.159Z,304
2017-07-28T03:24:42.434Z,332
2017-07-28T03:25:54.815Z,356
2017-07-28T03:27:07.447Z,384
2017-07-28T03:28:20.025Z,416
2017-07-28T03:29:32.331Z,448
2017-07-28T03:30:44.256Z,484
2017-07-28T03:31:56.853Z,520
2017-07-28T03:33:09.389Z,556
2017-07-28T03:34:21.670Z,592
2017-07-28T03:35:33.926Z,632
2017-07-28T03:36:46.466Z,672
2017-07-28T03:37:58.767Z,712
2017-07-28T03:39:11.347Z,760
2017-07-28T03:40:23.642Z,816
2017-07-28T03:41:36.225Z,880
2017-07-28T03:42:48.541Z,952
2017-07-28T03:44:01.141Z,1040
2017-07-28T03:45:13.776Z,1124
2017-07-28T03:46:26.353Z,1204
2017-07-28T03:47:38.648Z,1288
2017-07-28T03:48:50.950Z,1364
2017-07-28T03:50:03.567Z,1432
2017-07-28T03:51:15.842Z,1496
2017-07-28T03:52:28.428Z,1568
2017-07-28T03:53:41.034Z,1640
2017-07-28T03:54:53.600Z,1716
2017-07-28T03:56:06.192Z,1788
2017-07-28T03:57:18.785Z,1852
2017-07-28T03:58:31.413Z,1908
2017-07-28T03:59:44.021Z,1980
2017-07-28T04:00:56.634Z,2060
2017-07-28T04:02:09.224Z,2140
2017-07-28T04:03:21.832Z,2204
2017-07-28T04:04:34.097Z,2260
2017-07-28T04:05:46.697Z,2312
2017-07-28T04:06:59.056Z,2368
2017-07-28T04:08:11.352Z,2432
2017-07-28T04:09:23.901Z,2496
2017-07-28T04:10:36.458Z,2568
2017-07-28T04:11:49.036Z,2636
2017-07-28T04:13:01.284Z,2716
2017-07-28T04:14:13.603Z,2788
2017-07-28T04:15:26.150Z,2848
2017-07-28T04:16:38.770Z,2900
2017-07-28T04:17:51.065Z,2976
2017-07-28T04:19:03.615Z,3060
2017-07-28T04:20:16.110Z,3140
2017-07-28T04:21:28.654Z,3236
2017-07-28T04:22:41.224Z,3320
2017-07-28T04:23:53.792Z,3360
2017-07-28T04:25:06.091Z,3408
2017-07-28T04:26:18.680Z,3488
2017-07-28T04:27:30.915Z,3604
2017-07-28T04:28:43.505Z,3708
2017-07-28T04:29:56.144Z,3784
2017-07-28T04:31:08.745Z,3852
2017-07-28T04:32:21.342Z,3952
2017-07-28T04:33:33.925Z,4104
2017-07-28T04:34:46.187Z,4336
2017-07-28T04:35:58.756Z,4832
2017-07-28T04:37:11.326Z,5656
2017-07-28T04:38:23.844Z,6548
2017-07-28T04:39:36.141Z,7196
2017-07-28T04:40:48.713Z,7336
2017-07-28T04:42:01.292Z,7516
2017-07-28T04:43:13.881Z,7900
2017-07-28T04:44:26.480Z,8320
2017-07-28T04:45:39.122Z,8080
2017-07-28T04:46:51.729Z,7164
2017-07-28T04:48:04.312Z,6056
2017-07-28T04:49:16.276Z,5444
2017-07-28T04:50:28.586Z,5220
2017-07-28T04:51:40.887Z,5048
2017-07-28T04:52:52.579Z,5044
2017-07-28T04:54:04.879Z,5020
2017-07-28T04:55:16.850Z,4824
2017-07-28T04:56:28.839Z,4768
2017-07-28T04:57:41.482Z,4860
2017-07-28T04:58:53.732Z,4960
2017-07-28T05:00:06.303Z,5064
2017-07-28T05:01:18.255Z,5344
2017-07-28T05:02:30.882Z,5504
2017-07-28T05:03:43.510Z,5696
2017-07-28T05:04:55.774Z,5800
2017-07-28T05:06:08.389Z,5956
2017-07-28T05:07:21.030Z,6012
2017-07-28T05:08:33.596Z,6024
2017-07-28T05:09:46.224Z,6052
2017-07-28T05:10:59.130Z,6060
2017-07-28T05:12:11.475Z,6144
2017-07-28T05:13:24.010Z,6208
2017-07-28T05:14:36.598Z,6300
2017-07-28T05:15:49.220Z,6376
2017-07-28T05:17:01.502Z,6452
2017-07-28T05:18:13.810Z,6548
2017-07-28T05:19:26.363Z,6600
2017-07-28T05:20:38.929Z,6604
2017-07-28T05:21:51.486Z,6660
2017-07-28T05:23:03.774Z,6728
2017-07-28T05:24:16.016Z,6736
2017-07-28T05:25:28.329Z,6744
2017-07-28T05:26:40.591Z,6800
2017-07-28T05:27:53.147Z,7156
2017-07-28T05:29:05.725Z,7320
2017-07-28T05:30:18.294Z,7456
2017-07-28T05:31:30.949Z,7676
2017-07-28T05:32:43.565Z,9620
2017-07-28T05:33:56.212Z,9944
2017-07-28T05:35:08.541Z,8116
2017-07-28T05:36:20.882Z,7420
2017-07-28T05:37:33.482Z,7376
2017-07-28T05:38:46.097Z,7400
2017-07-28T05:39:58.654Z,7504
2017-07-28T05:41:11.240Z,7556
2017-07-28T05:42:23.860Z,7628
2017-07-28T05:43:36.353Z,7672
2017-07-28T05:44:48.978Z,8116
2017-07-28T05:46:01.554Z,7864
2017-07-28T05:47:13.881Z,7800
2017-07-28T05:48:26.463Z,7780
2017-07-28T05:49:39.043Z,7744
2017-07-28T05:50:51.301Z,7744
2017-07-28T05:52:03.888Z,7796
2017-07-28T05:53:16.543Z,7752
2017-07-28T05:54:29.065Z,8004
2017-07-28T05:55:41.698Z,8228
2017-07-28T05:56:53.711Z,7752
2017-07-28T05:58:05.988Z,7836
2017-07-28T05:59:18.318Z,8080
2017-07-28T06:00:30.593Z,8316
2017-07-28T06:01:42.871Z,8620
2017-07-28T06:02:55.471Z,8212
2017-07-28T06:04:07.820Z,8316
2017-07-28T06:05:20.635Z,8308
2017-07-28T06:06:32.934Z,8500
2017-07-28T06:07:45.500Z,9780
2017-07-28T06:08:58.119Z,9164
2017-07-28T06:10:10.392Z,11596
2017-07-28T06:11:23.014Z,8672
2017-07-28T06:12:35.625Z,8696
2017-07-28T06:13:47.625Z,8556
2017-07-28T06:15:00.213Z,9668
2017-07-28T06:16:12.498Z,9280
2017-07-28T06:17:24.712Z,8572
2017-07-28T06:18:37.283Z,9696
2017-07-28T06:19:49.915Z,12724
2017-07-28T06:21:01.911Z,10928
2017-07-28T06:22:13.870Z,8652
2017-07-28T06:23:25.843Z,8696
2017-07-28T06:24:38.423Z,17100
2017-07-28T06:25:51.083Z,21856
2017-07-28T06:27:03.604Z,26208
2017-07-28T06:28:16.158Z,30688
2017-07-28T06:29:28.095Z,36352
2017-07-28T06:30:40.068Z,15472
2017-07-28T06:31:52.387Z,10880
2017-07-28T06:33:04.646Z,20640
2017-07-28T06:34:17.229Z,22048
2017-07-28T06:35:29.457Z,26976
2017-07-28T06:36:41.697Z,39616
2017-07-28T06:37:54.267Z,55872
2017-07-28T06:39:06.566Z,52992
2017-07-28T06:40:19.195Z,55584
2017-07-28T06:41:31.544Z,55424
2017-07-28T06:42:44.127Z,55776
2017-07-28T06:43:56.690Z,56288
2017-07-28T06:45:09.284Z,52128
2017-07-28T06:46:21.589Z,49280
2017-07-28T06:47:34.203Z,45536
2017-07-28T06:48:46.442Z,46496
2017-07-28T06:49:59.026Z,44960
2017-07-28T06:51:11.558Z,45248
2017-07-28T06:52:23.830Z,45728
2017-07-28T06:53:36.450Z,39360
2017-07-28T06:54:49.021Z,35616
2017-07-28T06:56:01.661Z,33568
2017-07-28T06:57:13.663Z,34496
2017-07-28T06:58:26.280Z,35040
2017-07-28T06:59:38.819Z,39040
2017-07-28T07:00:51.364Z,42880
2017-07-28T07:02:03.668Z,46752
2017-07-28T07:03:15.986Z,46240
2017-07-28T07:04:28.310Z,47904
2017-07-28T07:05:40.591Z,51776
2017-07-28T07:06:52.582Z,51936
2017-07-28T07:08:04.865Z,54336
2017-07-28T07:09:17.485Z,54848
2017-07-28T07:10:30.144Z,50912
2017-07-28T07:11:42.781Z,50848
2017-07-28T07:12:54.847Z,54176
2017-07-28T07:14:07.201Z,58880
2017-07-28T07:15:19.506Z,61504
2017-07-28T07:16:32.092Z,62080
2017-07-28T07:17:44.682Z,61376
2017-07-28T07:18:57.279Z,62496
2017-07-28T07:20:08.949Z,64224
2017-07-28T07:21:21.521Z,64480
2017-07-28T07:22:33.772Z,63136
2017-07-28T07:23:46.349Z,61408
2017-07-28T07:24:58.983Z,59264
2017-07-28T07:26:11.540Z,57120
2017-07-28T07:27:24.182Z,55520
2017-07-28T07:28:36.807Z,58176
2017-07-28T07:29:49.415Z,57792
2017-07-28T07:31:02.011Z,55552
2017-07-28T07:32:14.300Z,55072
2017-07-28T07:33:26.931Z,55488
2017-07-28T07:34:39.203Z,57568
2017-07-28T07:35:51.503Z,60544
2017-07-28T07:37:04.053Z,66176
2017-07-28T07:38:16.392Z,67040
2017-07-28T07:39:28.973Z,67360
2017-07-28T07:40:41.261Z,67712
2017-07-28T07:41:53.265Z,69088
2017-07-28T07:43:05.954Z,67616
2017-07-28T07:44:17.931Z,67392
2017-07-28T07:45:30.269Z,66528
2017-07-28T07:46:42.920Z,65888
2017-07-28T07:47:55.205Z,67456
2017-07-28T07:49:07.444Z,70400
2017-07-28T07:50:20.033Z,65792
2017-07-28T07:51:32.017Z,64864
2017-07-28T07:52:44.306Z,70048
2017-07-28T07:53:56.841Z,70240
2017-07-28T07:55:09.505Z,74016
2017-07-28T07:56:22.108Z,73632
2017-07-28T07:57:34.405Z,70752
2017-07-28T07:58:47.016Z,71776
2017-07-28T07:59:59.298Z,73600
2017-07-28T08:01:11.589Z,75488
2017-07-28T08:02:24.231Z,75360
2017-07-28T08:03:36.526Z,72544
2017-07-28T08:04:48.823Z,72832
2017-07-28T08:06:01.463Z,71936
2017-07-28T08:07:14.095Z,69568
2017-07-28T08:08:26.682Z,67072
2017-07-28T08:09:38.937Z,67872
2017-07-28T08:10:51.568Z,70112
2017-07-28T08:12:03.946Z,71680
2017-07-28T08:13:16.555Z,71936
2017-07-28T08:14:29.171Z,75232
2017-07-28T08:15:41.798Z,77024
2017-07-28T08:16:54.411Z,75488
2017-07-28T08:18:07.064Z,76736
2017-07-28T08:19:19.348Z,81472
2017-07-28T08:20:31.956Z,81440
2017-07-28T08:21:43.941Z,80832
2017-07-28T08:22:55.938Z,81600
2017-07-28T08:24:08.558Z,77344
2017-07-28T08:25:21.086Z,77856
2017-07-28T08:26:33.423Z,82464
2017-07-28T08:27:45.652Z,81088
2017-07-28T08:28:57.971Z,80896
2017-07-28T08:30:09.978Z,82976
2017-07-28T08:31:22.309Z,81856
2017-07-28T08:32:34.609Z,84512
2017-07-28T08:33:46.936Z,80672
2017-07-28T08:34:59.280Z,82304
2017-07-28T08:36:11.873Z,81056
2017-07-28T08:37:24.145Z,47328
2017-07-28T08:38:36.844Z,11816
2017-07-28T08:39:49.185Z,16740
2017-07-28T08:41:01.781Z,30656
2017-07-28T08:42:14.096Z,36192
2017-07-28T08:43:26.718Z,39712
2017-07-28T08:44:38.679Z,41184
2017-07-28T08:45:50.677Z,42016
2017-07-28T08:47:03.317Z,45280
2017-07-28T08:48:15.342Z,47392
2017-07-28T08:49:27.658Z,27936
2017-07-28T08:50:40.222Z,58016
2017-07-28T08:51:52.820Z,25504
2017-07-28T08:53:05.498Z,15156
2017-07-28T08:54:18.154Z,21632
2017-07-28T08:55:30.806Z,11136
2017-07-28T08:56:43.061Z,13556
2017-07-28T08:57:55.647Z,67232
2017-07-28T08:59:08.240Z,68096
2017-07-28T09:00:20.522Z,64896
2017-07-28T09:01:33.206Z,66496
2017-07-28T09:02:45.503Z,70624
2017-07-28T09:03:58.104Z,71680
2017-07-28T09:05:09.794Z,69984
2017-07-28T09:06:22.073Z,70080
2017-07-28T09:07:34.392Z,18720
2017-07-28T09:08:46.949Z,77376
2017-07-28T09:09:59.527Z,11776
2017-07-28T09:11:12.109Z,70688
2017-07-28T09:12:24.726Z,73632
2017-07-28T09:13:37.022Z,77728
2017-07-28T09:14:49.575Z,73984
2017-07-28T09:16:01.883Z,24992
2017-07-28T09:17:14.431Z,21120
2017-07-28T09:18:27.010Z,24704
2017-07-28T09:19:39.598Z,31616
2017-07-28T09:20:51.921Z,41376
2017-07-28T09:22:04.186Z,65728
2017-07-28T09:23:16.783Z,57248
2017-07-28T09:24:28.164Z,28992
2017-07-28T09:25:40.773Z,39904
2017-07-28T09:26:53.072Z,20960
2017-07-28T09:28:05.042Z,24224
2017-07-28T09:29:17.673Z,35616
2017-07-28T09:30:30.294Z,66176
2017-07-28T09:31:42.647Z,39552
2017-07-28T09:32:54.707Z,37696
2017-07-28T09:34:07.027Z,24576
2017-07-28T09:35:19.322Z,29152
2017-07-28T09:36:31.060Z,37312
2017-07-28T09:37:43.626Z,18336
2017-07-28T09:38:56.183Z,15368
2017-07-28T09:40:08.736Z,21632
2017-07-28T09:41:21.052Z,25888
2017-07-28T09:42:33.633Z,17824
2017-07-28T09:43:45.949Z,19264
2017-07-28T09:44:57.945Z,45152
2017-07-28T09:46:09.932Z,48128
2017-07-28T09:47:22.177Z,49280
2017-07-28T09:48:34.476Z,49472
2017-07-28T09:49:47.120Z,37440
2017-07-28T09:50:59.394Z,56864
2017-07-28T09:52:11.713Z,64672
2017-07-28T09:53:24.316Z,70464
2017-07-28T09:54:36.866Z,15832
2017-07-28T09:55:49.474Z,76320
2017-07-28T09:57:02.099Z,79424
2017-07-28T09:58:14.702Z,78400
2017-07-28T09:59:26.984Z,71296
2017-07-28T10:00:39.555Z,41696
2017-07-28T10:01:52.129Z,15108
2017-07-28T10:03:04.115Z,16392
2017-07-28T10:04:16.160Z,43712
2017-07-28T10:05:28.466Z,71488
2017-07-28T10:06:40.743Z,77952
2017-07-28T10:07:53.306Z,79040
2017-07-28T10:09:05.577Z,83040
2017-07-28T10:10:17.627Z,84320
2017-07-28T10:11:30.220Z,84032
2017-07-28T10:12:42.821Z,81728
2017-07-28T10:13:55.153Z,80512
2017-07-28T10:15:07.435Z,82336
2017-07-28T10:16:20.103Z,84736
2017-07-28T10:17:32.375Z,87072
2017-07-28T10:18:44.624Z,84096
2017-07-28T10:19:56.941Z,81280
2017-07-28T10:21:09.494Z,79680
2017-07-28T10:22:22.104Z,78464
2017-07-28T10:23:34.085Z,76256
2017-07-28T10:24:46.723Z,71904
2017-07-28T10:25:59.305Z,79552
2017-07-28T10:27:11.607Z,84064
2017-07-28T10:28:23.914Z,81920
2017-07-28T10:29:36.476Z,26976
2017-07-28T10:30:48.740Z,79488
2017-07-28T10:32:01.378Z,48896
2017-07-28T10:33:14.012Z,82976
2017-07-28T10:34:26.005Z,93440
2017-07-28T10:35:38.262Z,62912
2017-07-28T10:36:50.561Z,32384
2017-07-28T10:38:02.903Z,83104
2017-07-28T10:39:14.613Z,84192
2017-07-28T10:40:27.206Z,32672
2017-07-28T10:41:39.584Z,87392
2017-07-28T10:42:52.314Z,70944
2017-07-28T10:44:04.885Z,31808
2017-07-28T10:45:17.180Z,44032
2017-07-28T10:46:29.775Z,43904
2017-07-28T10:47:42.071Z,54400
2017-07-28T10:48:54.733Z,72640
2017-07-28T10:50:07.394Z,68000
2017-07-28T10:51:19.977Z,36256
2017-07-28T10:52:31.921Z,40096
2017-07-28T10:53:43.948Z,35776
2017-07-28T10:54:56.247Z,32928
2017-07-28T10:56:07.897Z,62496
2017-07-28T10:57:20.207Z,40160
2017-07-28T10:58:32.485Z,39392
2017-07-28T10:59:45.040Z,32320
2017-07-28T11:00:57.088Z,31648
2017-07-28T11:02:09.413Z,28288
2017-07-28T11:03:21.735Z,26016
2017-07-28T11:04:34.396Z,24096
2017-07-28T11:05:47.041Z,23520
2017-07-28T11:06:59.692Z,24000
2017-07-28T11:08:11.977Z,26400
2017-07-28T11:09:24.602Z,29152
2017-07-28T11:10:37.214Z,34528
2017-07-28T11:11:49.502Z,61536
2017-07-28T11:13:01.821Z,85152
2017-07-28T11:14:13.856Z,38816
2017-07-28T11:15:26.131Z,38848
2017-07-28T11:16:38.423Z,45792
2017-07-28T11:17:50.996Z,34048
2017-07-28T11:19:03.572Z,30592
2017-07-28T11:20:16.437Z,30752
2017-07-28T11:21:28.714Z,30080
2017-07-28T11:22:41.054Z,29280
2017-07-28T11:23:53.278Z,29024
2017-07-28T11:25:05.569Z,30464
2017-07-28T11:26:17.817Z,32576
2017-07-28T11:27:30.094Z,72544
2017-07-28T11:28:42.333Z,37408
2017-07-28T11:29:54.982Z,34368
2017-07-28T11:31:07.561Z,35936
2017-07-28T11:32:19.876Z,40800
2017-07-28T11:33:32.177Z,109568
2017-07-28T11:34:44.194Z,43520
2017-07-28T11:35:56.459Z,41120
2017-07-28T11:37:09.002Z,42176
2017-07-28T11:38:20.980Z,45280
2017-07-28T11:39:32.949Z,37696
2017-07-28T11:40:45.641Z,37088
2017-07-28T11:41:58.514Z,39232
2017-07-28T11:43:11.139Z,45888
2017-07-28T11:44:23.211Z,58336
2017-07-28T11:45:35.793Z,62432
2017-07-28T11:46:48.127Z,41088
2017-07-28T11:48:00.742Z,38240
2017-07-28T11:49:13.013Z,36416
2017-07-28T11:50:25.563Z,35904
2017-07-28T11:51:37.554Z,42560
2017-07-28T11:52:50.124Z,40320
2017-07-28T11:54:02.151Z,43424
2017-07-28T11:55:14.790Z,43168
2017-07-28T11:56:27.444Z,50272
2017-07-28T11:57:39.476Z,42784
2017-07-28T11:58:52.079Z,50208
2017-07-28T12:00:04.403Z,88672
2017-07-28T12:01:16.649Z,57984
2017-07-28T12:02:29.200Z,40064
2017-07-28T12:03:41.488Z,35232
2017-07-28T12:04:54.092Z,46880
2017-07-28T12:06:06.656Z,68832
2017-07-28T12:07:19.262Z,74016
2017-07-28T12:08:31.896Z,37408
2017-07-28T12:09:43.869Z,29728
2017-07-28T12:10:56.465Z,28992
2017-07-28T12:12:08.771Z,30144
2017-07-28T12:13:21.474Z,48864
2017-07-28T12:14:34.063Z,38368
2017-07-28T12:15:46.382Z,38944
2017-07-28T12:16:58.056Z,39680
2017-07-28T12:18:10.051Z,26624
2017-07-28T12:19:22.422Z,37952
2017-07-28T12:20:34.732Z,58752
2017-07-28T12:21:47.255Z,32160
2017-07-28T12:22:59.865Z,44000
2017-07-28T12:24:11.831Z,40064
2017-07-28T12:25:24.422Z,43424
2017-07-28T12:26:37.014Z,44512
2017-07-28T12:27:49.632Z,48448
2017-07-28T12:29:01.579Z,42912
2017-07-28T12:30:13.292Z,33664
2017-07-28T12:31:25.919Z,27168
2017-07-28T12:32:38.218Z,18944
2017-07-28T12:33:50.511Z,43456
2017-07-28T12:35:03.136Z,55904
2017-07-28T12:36:15.453Z,45280
2017-07-28T12:37:27.456Z,60096
2017-07-28T12:38:40.045Z,29568
2017-07-28T12:39:52.614Z,26784
2017-07-28T12:41:04.598Z,22848
2017-07-28T12:42:17.310Z,18176
2017-07-28T12:43:29.916Z,17952
2017-07-28T12:44:41.907Z,15724
2017-07-28T12:45:54.538Z,13972
2017-07-28T12:47:07.142Z,12100
2017-07-28T12:48:19.762Z,12744
2017-07-28T12:49:32.416Z,14560
2017-07-28T12:50:45.046Z,18208
2017-07-28T12:51:57.382Z,20448
2017-07-28T12:53:10.014Z,21088
2017-07-28T12:54:22.241Z,20384
2017-07-28T12:55:34.516Z,18976
2017-07-28T12:56:46.760Z,17008
2017-07-28T12:57:59.322Z,16272
2017-07-28T12:59:11.963Z,18240
2017-07-28T13:00:24.574Z,23296
2017-07-28T13:01:37.174Z,34080
2017-07-28T13:02:49.813Z,77312
2017-07-28T13:04:02.360Z,63936
2017-07-28T13:05:14.330Z,33024
2017-07-28T13:06:27.004Z,70528
2017-07-28T13:07:38.957Z,73760
2017-07-28T13:08:51.572Z,71552
2017-07-28T13:10:03.817Z,56288
2017-07-28T13:11:15.865Z,43936
2017-07-28T13:12:27.569Z,47968
2017-07-28T13:13:39.879Z,26208
2017-07-28T13:14:52.441Z,36128
2017-07-28T13:16:05.116Z,30592
2017-07-28T13:17:17.090Z,34336
2017-07-28T13:18:29.367Z,14328
2017-07-28T13:19:41.935Z,24864
2017-07-28T13:20:54.510Z,24128
2017-07-28T13:22:07.109Z,22848
2017-07-28T13:23:19.151Z,27072
2017-07-28T13:24:31.783Z,46944
2017-07-28T13:25:44.349Z,66432
2017-07-28T13:26:57.024Z,68800
2017-07-28T13:28:09.404Z,61248
2017-07-28T13:29:21.660Z,62496
2017-07-28T13:30:34.321Z,61600
2017-07-28T13:31:46.926Z,55456
2017-07-28T13:32:59.211Z,53312
2017-07-28T13:34:11.808Z,19808
2017-07-28T13:35:24.103Z,27936
2017-07-28T13:36:36.383Z,36512
2017-07-28T13:37:48.963Z,8832
2017-07-28T13:39:01.525Z,11040
2017-07-28T13:40:13.787Z,11348
2017-07-28T13:41:26.344Z,60896
2017-07-28T13:42:38.660Z,34336
2017-07-28T13:43:51.285Z,64288
2017-07-28T13:45:03.921Z,65088
2017-07-28T13:46:15.942Z,55296
2017-07-28T13:47:28.278Z,64480
2017-07-28T13:48:40.910Z,61856
2017-07-28T13:49:53.491Z,59584
2017-07-28T13:51:05.824Z,57120
2017-07-28T13:52:18.207Z,56160
2017-07-28T13:53:30.805Z,53792
2017-07-28T13:54:43.119Z,54304
2017-07-28T13:55:55.433Z,53536
2017-07-28T13:57:07.485Z,53248
2017-07-28T13:58:19.503Z,53376
2017-07-28T13:59:31.820Z,51104
2017-07-28T14:00:44.128Z,51232
2017-07-28T14:01:56.739Z,26880
2017-07-28T14:03:09.028Z,48000
2017-07-28T14:04:21.567Z,52032
2017-07-28T14:05:34.200Z,53056
2017-07-28T14:06:46.747Z,53504
2017-07-28T14:07:59.018Z,50560
2017-07-28T14:09:11.364Z,48640
2017-07-28T14:10:23.683Z,45824
2017-07-28T14:11:35.988Z,51264
2017-07-28T14:12:48.287Z,47872
2017-07-28T14:14:00.902Z,40320
2017-07-28T14:15:13.529Z,55232
2017-07-28T14:16:26.118Z,52608
2017-07-28T14:17:38.686Z,48832
2017-07-28T14:18:51.294Z,46944
2017-07-28T14:20:03.933Z,48032
2017-07-28T14:21:16.534Z,26848
2017-07-28T14:22:29.143Z,42016
2017-07-28T14:23:41.132Z,7848
2017-07-28T14:24:53.079Z,7608
2017-07-28T14:26:05.750Z,44192
2017-07-28T14:27:18.045Z,44096
2017-07-28T14:28:30.716Z,42080
2017-07-28T14:29:43.269Z,41152
2017-07-28T14:30:55.544Z,8256
2017-07-28T14:32:08.118Z,7428
2017-07-28T14:33:20.763Z,38496
2017-07-28T14:34:33.360Z,9436
2017-07-28T14:35:45.983Z,7456
2017-07-28T14:36:58.636Z,6564
2017-07-28T14:38:10.998Z,7340
2017-07-28T14:39:23.235Z,6396
2017-07-28T14:40:35.181Z,32864
2017-07-28T14:41:47.816Z,37856
2017-07-28T14:43:00.461Z,42112
2017-07-28T14:44:13.122Z,32864
2017-07-28T14:45:25.728Z,24768
2017-07-28T14:46:38.062Z,24480
2017-07-28T14:47:50.672Z,23744
2017-07-28T14:49:02.955Z,16768
2017-07-28T14:50:15.226Z,13140
2017-07-28T14:51:27.863Z,7520
2017-07-28T14:52:40.489Z,6908
2017-07-28T14:53:53.071Z,6948
2017-07-28T14:55:05.776Z,6600
2017-07-28T14:56:18.422Z,6588
2017-07-28T14:57:31.009Z,7088
2017-07-28T14:58:43.364Z,7228
2017-07-28T14:59:55.666Z,7228
2017-07-28T15:01:07.889Z,9424
2017-07-28T15:02:20.546Z,8676
2017-07-28T15:03:33.161Z,9336
2017-07-28T15:04:45.778Z,8556
2017-07-28T15:05:58.372Z,8832
2017-07-28T15:07:10.765Z,9916
2017-07-28T15:08:22.149Z,9116
2017-07-28T15:09:34.777Z,8736
2017-07-28T15:10:47.405Z,6724
2017-07-28T15:11:59.987Z,8360
2017-07-28T15:13:12.622Z,6944
2017-07-28T15:14:24.929Z,6968
2017-07-28T15:15:37.524Z,6348
2017-07-28T15:16:50.085Z,6600
2017-07-28T15:18:02.630Z,6360
2017-07-28T15:19:14.313Z,6228
2017-07-28T15:20:26.298Z,6120
2017-07-28T15:21:38.800Z,7044
2017-07-28T15:22:51.402Z,7792
2017-07-28T15:24:03.988Z,8812
2017-07-28T15:25:15.674Z,8856
2017-07-28T15:26:27.940Z,7588
2017-07-28T15:27:40.507Z,6752
2017-07-28T15:28:53.069Z,7176
2017-07-28T15:30:05.299Z,7388
2017-07-28T15:31:17.636Z,6520
2017-07-28T15:32:30.213Z,5784
2017-07-28T15:33:42.804Z,5816
2017-07-28T15:34:55.079Z,6360
2017-07-28T15:36:07.736Z,7128
2017-07-28T15:37:20.008Z,7544
2017-07-28T15:38:32.642Z,7208
2017-07-28T15:39:45.249Z,6092
2017-07-28T15:40:57.881Z,5384
2017-07-28T15:42:10.535Z,4408
2017-07-28T15:43:22.805Z,4864
2017-07-28T15:44:34.848Z,5184
2017-07-28T15:45:47.400Z,5968
2017-07-28T15:47:00.008Z,5528
2017-07-28T15:48:12.630Z,5292
2017-07-28T15:49:25.217Z,5132
2017-07-28T15:50:37.797Z,4876
2017-07-28T15:51:50.417Z,4772
2017-07-28T15:53:02.075Z,4764
2017-07-28T15:54:14.732Z,4684
2017-07-28T15:55:27.318Z,4696
2017-07-28T15:56:39.647Z,4676
2017-07-28T15:57:51.925Z,4836
2017-07-28T15:59:04.224Z,4724
2017-07-28T16:00:16.845Z,4544
2017-07-28T16:01:29.141Z,4496
2017-07-28T16:02:41.199Z,4684
2017-07-28T16:03:53.153Z,4592
2017-07-28T16:05:05.545Z,4580
2017-07-28T16:06:17.879Z,4560